sensor_id;sensor_type;location;lat;lon;timestamp;P1;durP1;ratioP1;P2;durP2;ratioP2
11907;SDS011;6014;47.690;9.130;2023-09-30T00:00:17;22.05;;;10.60;;
11907;SDS011;6014;47.690;9.130;2023-09-30T00:02:47;20.98;;;10.00;;
11907;SDS011;6014;47.690;9.130;2023-09-30T00:05:15;22.55;;;9.48;;
11907;SDS011;6014;47.690;9.130;2023-09-30T00:07:46;27.50;;;10.23;;
11907;SDS011;6014;47.690;9.130;2023-09-30T00:10:14;20.88;;;8.90;;
11907;SDS011;6014;47.690;9.130;2023-09-30T00:12:42;20.15;;;9.68;;
11907;SDS011;6014;47.690;9.130;2023-09-30T00:15:19;29.08;;;11.95;;
11907;SDS011;6014;47.690;9.130;2023-09-30T00:17:48;21.92;;;10.27;;
11907;SDS011;6014;47.690;9.130;2023-09-30T00:20:16;23.98;;;10.35;;
11907;SDS011;6014;47.690;9.130;2023-09-30T00:22:44;22.30;;;9.70;;
11907;SDS011;6014;47.690;9.130;2023-09-30T00:25:12;24.00;;;10.38;;
11907;SDS011;6014;47.690;9.130;2023-09-30T00:27:41;22.33;;;10.50;;
11907;SDS011;6014;47.690;9.130;2023-09-30T00:30:09;25.40;;;8.80;;
11907;SDS011;6014;47.690;9.130;2023-09-30T00:32:38;23.90;;;9.80;;
11907;SDS011;6014;47.690;9.130;2023-09-30T00:35:08;19.40;;;9.23;;
11907;SDS011;6014;47.690;9.130;2023-09-30T00:37:37;20.10;;;8.70;;
11907;SDS011;6014;47.690;9.130;2023-09-30T00:40:06;20.45;;;8.73;;
11907;SDS011;6014;47.690;9.130;2023-09-30T00:42:38;20.30;;;8.88;;
11907;SDS011;6014;47.690;9.130;2023-09-30T00:45:07;19.35;;;8.38;;
11907;SDS011;6014;47.690;9.130;2023-09-30T00:47:36;20.52;;;9.15;;
11907;SDS011;6014;47.690;9.130;2023-09-30T00:50:05;24.80;;;9.27;;
11907;SDS011;6014;47.690;9.130;2023-09-30T00:52:37;19.67;;;8.88;;
11907;SDS011;6014;47.690;9.130;2023-09-30T00:55:06;20.55;;;9.27;;
11907;SDS011;6014;47.690;9.130;2023-09-30T00:57:37;25.50;;;8.93;;
11907;SDS011;6014;47.690;9.130;2023-09-30T01:00:07;20.27;;;8.73;;
11907;SDS011;6014;47.690;9.130;2023-09-30T01:02:38;21.52;;;9.23;;
11907;SDS011;6014;47.690;9.130;2023-09-30T01:05:08;21.85;;;8.80;;
11907;SDS011;6014;47.690;9.130;2023-09-30T01:07:37;21.80;;;8.43;;
11907;SDS011;6014;47.690;9.130;2023-09-30T01:10:05;21.13;;;8.18;;
11907;SDS011;6014;47.690;9.130;2023-09-30T01:12:34;21.58;;;8.98;;
11907;SDS011;6014;47.690;9.130;2023-09-30T01:15:02;22.33;;;9.10;;
11907;SDS011;6014;47.690;9.130;2023-09-30T01:17:34;20.73;;;8.75;;
11907;SDS011;6014;47.690;9.130;2023-09-30T01:20:03;20.63;;;8.05;;
11907;SDS011;6014;47.690;9.130;2023-09-30T01:22:34;17.92;;;8.35;;
11907;SDS011;6014;47.690;9.130;2023-09-30T01:25:02;19.10;;;8.15;;
11907;SDS011;6014;47.690;9.130;2023-09-30T01:27:31;22.42;;;7.88;;
11907;SDS011;6014;47.690;9.130;2023-09-30T01:29:59;16.48;;;7.88;;
11907;SDS011;6014;47.690;9.130;2023-09-30T01:32:27;17.60;;;7.82;;
11907;SDS011;6014;47.690;9.130;2023-09-30T01:34:56;14.95;;;7.00;;
11907;SDS011;6014;47.690;9.130;2023-09-30T01:37:26;19.73;;;8.10;;
11907;SDS011;6014;47.690;9.130;2023-09-30T01:39:56;18.63;;;7.63;;
11907;SDS011;6014;47.690;9.130;2023-09-30T01:42:24;18.15;;;7.57;;
11907;SDS011;6014;47.690;9.130;2023-09-30T01:44:52;16.33;;;7.78;;
11907;SDS011;6014;47.690;9.130;2023-09-30T01:47:20;18.25;;;7.93;;
11907;SDS011;6014;47.690;9.130;2023-09-30T01:49:49;18.15;;;7.63;;
11907;SDS011;6014;47.690;9.130;2023-09-30T01:52:17;23.88;;;7.95;;
11907;SDS011;6014;47.690;9.130;2023-09-30T01:54:45;19.42;;;7.47;;
11907;SDS011;6014;47.690;9.130;2023-09-30T01:57:14;19.98;;;6.90;;
11907;SDS011;6014;47.690;9.130;2023-09-30T01:59:42;19.42;;;7.15;;
11907;SDS011;6014;47.690;9.130;2023-09-30T02:02:10;17.40;;;6.72;;
11907;SDS011;6014;47.690;9.130;2023-09-30T02:04:39;14.63;;;6.40;;
11907;SDS011;6014;47.690;9.130;2023-09-30T02:07:07;19.73;;;6.85;;
11907;SDS011;6014;47.690;9.130;2023-09-30T02:09:35;16.23;;;6.55;;
11907;SDS011;6014;47.690;9.130;2023-09-30T02:12:03;17.88;;;7.05;;
11907;SDS011;6014;47.690;9.130;2023-09-30T02:14:36;17.95;;;6.85;;
11907;SDS011;6014;47.690;9.130;2023-09-30T02:17:05;16.15;;;6.72;;
11907;SDS011;6014;47.690;9.130;2023-09-30T02:19:35;15.52;;;6.45;;
11907;SDS011;6014;47.690;9.130;2023-09-30T02:22:03;16.98;;;6.72;;
11907;SDS011;6014;47.690;9.130;2023-09-30T02:24:31;15.90;;;6.53;;
11907;SDS011;6014;47.690;9.130;2023-09-30T02:26:59;16.52;;;6.22;;
11907;SDS011;6014;47.690;9.130;2023-09-30T02:29:27;16.13;;;6.60;;
11907;SDS011;6014;47.690;9.130;2023-09-30T02:31:57;15.88;;;6.38;;
11907;SDS011;6014;47.690;9.130;2023-09-30T02:37:13;17.50;;;7.03;;
11907;SDS011;6014;47.690;9.130;2023-09-30T02:39:41;15.57;;;6.40;;
11907;SDS011;6014;47.690;9.130;2023-09-30T02:42:10;18.23;;;7.05;;
11907;SDS011;6014;47.690;9.130;2023-09-30T02:44:39;14.93;;;6.40;;
11907;SDS011;6014;47.690;9.130;2023-09-30T02:47:08;20.25;;;6.97;;
11907;SDS011;6014;47.690;9.130;2023-09-30T02:49:37;15.70;;;6.65;;
11907;SDS011;6014;47.690;9.130;2023-09-30T02:52:05;18.70;;;7.18;;
11907;SDS011;6014;47.690;9.130;2023-09-30T02:54:33;16.92;;;6.53;;
11907;SDS011;6014;47.690;9.130;2023-09-30T02:57:01;15.82;;;6.43;;
11907;SDS011;6014;47.690;9.130;2023-09-30T02:59:30;16.55;;;5.88;;
11907;SDS011;6014;47.690;9.130;2023-09-30T03:01:58;16.00;;;6.65;;
11907;SDS011;6014;47.690;9.130;2023-09-30T03:04:27;20.83;;;6.40;;
11907;SDS011;6014;47.690;9.130;2023-09-30T03:06:57;13.25;;;5.82;;
11907;SDS011;6014;47.690;9.130;2023-09-30T03:09:25;14.38;;;5.78;;
11907;SDS011;6014;47.690;9.130;2023-09-30T03:11:53;14.25;;;6.25;;
11907;SDS011;6014;47.690;9.130;2023-09-30T03:14:22;15.45;;;5.97;;
11907;SDS011;6014;47.690;9.130;2023-09-30T03:16:51;15.63;;;5.78;;
11907;SDS011;6014;47.690;9.130;2023-09-30T03:19:19;14.43;;;6.57;;
11907;SDS011;6014;47.690;9.130;2023-09-30T03:21:48;14.55;;;6.72;;
11907;SDS011;6014;47.690;9.130;2023-09-30T03:24:16;14.07;;;6.38;;
11907;SDS011;6014;47.690;9.130;2023-09-30T03:26:44;16.70;;;6.55;;
11907;SDS011;6014;47.690;9.130;2023-09-30T03:29:13;15.30;;;5.63;;
11907;SDS011;6014;47.690;9.130;2023-09-30T03:31:41;16.90;;;6.88;;
11907;SDS011;6014;47.690;9.130;2023-09-30T03:34:09;18.63;;;7.40;;
11907;SDS011;6014;47.690;9.130;2023-09-30T03:36:38;16.40;;;6.95;;
11907;SDS011;6014;47.690;9.130;2023-09-30T03:39:08;14.82;;;6.35;;
11907;SDS011;6014;47.690;9.130;2023-09-30T03:41:48;13.82;;;5.35;;
11907;SDS011;6014;47.690;9.130;2023-09-30T03:44:15;14.55;;;6.20;;
11907;SDS011;6014;47.690;9.130;2023-09-30T03:46:44;19.52;;;6.35;;
11907;SDS011;6014;47.690;9.130;2023-09-30T03:49:12;16.05;;;6.47;;
11907;SDS011;6014;47.690;9.130;2023-09-30T03:51:40;16.60;;;6.35;;
11907;SDS011;6014;47.690;9.130;2023-09-30T03:54:10;17.13;;;5.90;;
11907;SDS011;6014;47.690;9.130;2023-09-30T03:56:38;14.50;;;5.68;;
11907;SDS011;6014;47.690;9.130;2023-09-30T03:59:07;16.73;;;6.20;;
11907;SDS011;6014;47.690;9.130;2023-09-30T04:01:36;21.35;;;6.82;;
11907;SDS011;6014;47.690;9.130;2023-09-30T04:04:06;17.10;;;6.82;;
11907;SDS011;6014;47.690;9.130;2023-09-30T04:06:36;14.35;;;6.13;;
11907;SDS011;6014;47.690;9.130;2023-09-30T04:09:05;15.10;;;5.75;;
11907;SDS011;6014;47.690;9.130;2023-09-30T04:11:38;13.30;;;6.30;;
11907;SDS011;6014;47.690;9.130;2023-09-30T04:14:08;15.18;;;6.07;;
11907;SDS011;6014;47.690;9.130;2023-09-30T04:16:38;17.75;;;6.93;;
11907;SDS011;6014;47.690;9.130;2023-09-30T04:19:07;15.23;;;6.20;;
11907;SDS011;6014;47.690;9.130;2023-09-30T04:21:37;16.75;;;6.95;;
11907;SDS011;6014;47.690;9.130;2023-09-30T04:24:05;15.50;;;5.93;;
11907;SDS011;6014;47.690;9.130;2023-09-30T04:26:34;18.60;;;5.90;;
11907;SDS011;6014;47.690;9.130;2023-09-30T04:29:04;14.90;;;5.97;;
11907;SDS011;6014;47.690;9.130;2023-09-30T04:31:32;14.45;;;5.97;;
11907;SDS011;6014;47.690;9.130;2023-09-30T04:34:00;14.95;;;6.07;;
11907;SDS011;6014;47.690;9.130;2023-09-30T04:36:29;16.15;;;6.72;;
11907;SDS011;6014;47.690;9.130;2023-09-30T04:38:58;14.25;;;6.22;;
11907;SDS011;6014;47.690;9.130;2023-09-30T04:41:27;14.10;;;5.70;;
11907;SDS011;6014;47.690;9.130;2023-09-30T04:43:55;23.58;;;6.18;;
11907;SDS011;6014;47.690;9.130;2023-09-30T04:46:25;12.75;;;5.30;;
11907;SDS011;6014;47.690;9.130;2023-09-30T04:48:53;18.02;;;6.20;;
11907;SDS011;6014;47.690;9.130;2023-09-30T04:51:21;15.32;;;5.88;;
11907;SDS011;6014;47.690;9.130;2023-09-30T04:53:52;14.15;;;6.50;;
11907;SDS011;6014;47.690;9.130;2023-09-30T04:56:21;17.27;;;6.43;;
11907;SDS011;6014;47.690;9.130;2023-09-30T04:58:49;15.85;;;6.60;;
11907;SDS011;6014;47.690;9.130;2023-09-30T05:01:17;12.75;;;5.70;;
11907;SDS011;6014;47.690;9.130;2023-09-30T05:03:47;14.27;;;5.97;;
11907;SDS011;6014;47.690;9.130;2023-09-30T05:06:16;11.48;;;4.70;;
11907;SDS011;6014;47.690;9.130;2023-09-30T05:08:44;12.35;;;5.22;;
11907;SDS011;6014;47.690;9.130;2023-09-30T05:11:12;15.55;;;5.95;;
11907;SDS011;6014;47.690;9.130;2023-09-30T05:13:40;11.95;;;5.10;;
11907;SDS011;6014;47.690;9.130;2023-09-30T05:16:09;14.63;;;5.88;;
11907;SDS011;6014;47.690;9.130;2023-09-30T05:18:39;15.25;;;6.03;;
11907;SDS011;6014;47.690;9.130;2023-09-30T05:21:08;15.27;;;5.72;;
11907;SDS011;6014;47.690;9.130;2023-09-30T05:23:37;13.77;;;5.57;;
11907;SDS011;6014;47.690;9.130;2023-09-30T05:26:05;13.88;;;5.63;;
11907;SDS011;6014;47.690;9.130;2023-09-30T05:28:33;14.18;;;5.82;;
11907;SDS011;6014;47.690;9.130;2023-09-30T05:31:01;12.80;;;5.18;;
11907;SDS011;6014;47.690;9.130;2023-09-30T05:33:29;13.40;;;5.60;;
11907;SDS011;6014;47.690;9.130;2023-09-30T05:35:58;13.15;;;5.65;;
11907;SDS011;6014;47.690;9.130;2023-09-30T05:38:30;13.32;;;5.45;;
11907;SDS011;6014;47.690;9.130;2023-09-30T05:40:58;13.25;;;5.45;;
11907;SDS011;6014;47.690;9.130;2023-09-30T05:43:27;12.05;;;4.93;;
11907;SDS011;6014;47.690;9.130;2023-09-30T05:45:56;18.20;;;5.72;;
11907;SDS011;6014;47.690;9.130;2023-09-30T05:48:27;13.23;;;5.75;;
11907;SDS011;6014;47.690;9.130;2023-09-30T05:50:56;15.57;;;6.28;;
11907;SDS011;6014;47.690;9.130;2023-09-30T05:53:24;13.05;;;5.40;;
11907;SDS011;6014;47.690;9.130;2023-09-30T05:55:55;17.23;;;5.50;;
11907;SDS011;6014;47.690;9.130;2023-09-30T05:58:29;13.40;;;5.78;;
11907;SDS011;6014;47.690;9.130;2023-09-30T06:00:58;16.15;;;6.13;;
11907;SDS011;6014;47.690;9.130;2023-09-30T06:03:26;14.93;;;6.05;;
11907;SDS011;6014;47.690;9.130;2023-09-30T06:05:56;14.98;;;6.40;;
11907;SDS011;6014;47.690;9.130;2023-09-30T06:08:26;14.93;;;5.57;;
11907;SDS011;6014;47.690;9.130;2023-09-30T06:10:55;12.73;;;4.93;;
11907;SDS011;6014;47.690;9.130;2023-09-30T06:13:31;13.52;;;5.13;;
11907;SDS011;6014;47.690;9.130;2023-09-30T06:16:00;14.40;;;4.97;;
11907;SDS011;6014;47.690;9.130;2023-09-30T06:18:28;12.30;;;5.60;;
11907;SDS011;6014;47.690;9.130;2023-09-30T06:20:56;13.70;;;5.45;;
11907;SDS011;6014;47.690;9.130;2023-09-30T06:23:25;13.50;;;5.40;;
11907;SDS011;6014;47.690;9.130;2023-09-30T06:25:53;13.90;;;5.85;;
11907;SDS011;6014;47.690;9.130;2023-09-30T06:28:23;14.98;;;5.28;;
11907;SDS011;6014;47.690;9.130;2023-09-30T06:30:52;24.73;;;6.60;;
11907;SDS011;6014;47.690;9.130;2023-09-30T06:33:21;14.27;;;6.25;;
11907;SDS011;6014;47.690;9.130;2023-09-30T06:35:49;14.27;;;5.90;;
11907;SDS011;6014;47.690;9.130;2023-09-30T06:38:18;12.65;;;5.30;;
11907;SDS011;6014;47.690;9.130;2023-09-30T06:40:46;14.05;;;5.43;;
11907;SDS011;6014;47.690;9.130;2023-09-30T06:43:15;13.90;;;5.07;;
11907;SDS011;6014;47.690;9.130;2023-09-30T06:45:44;14.27;;;5.60;;
11907;SDS011;6014;47.690;9.130;2023-09-30T06:48:13;13.23;;;5.53;;
11907;SDS011;6014;47.690;9.130;2023-09-30T06:50:43;14.15;;;5.28;;
11907;SDS011;6014;47.690;9.130;2023-09-30T06:53:12;13.13;;;5.07;;
11907;SDS011;6014;47.690;9.130;2023-09-30T06:55:40;17.08;;;5.47;;
11907;SDS011;6014;47.690;9.130;2023-09-30T06:58:09;15.15;;;5.45;;
11907;SDS011;6014;47.690;9.130;2023-09-30T07:00:38;15.30;;;5.00;;
11907;SDS011;6014;47.690;9.130;2023-09-30T07:03:09;12.75;;;4.93;;
11907;SDS011;6014;47.690;9.130;2023-09-30T07:05:39;13.45;;;5.35;;
11907;SDS011;6014;47.690;9.130;2023-09-30T07:08:07;12.65;;;5.00;;
11907;SDS011;6014;47.690;9.130;2023-09-30T07:10:35;16.02;;;6.75;;
11907;SDS011;6014;47.690;9.130;2023-09-30T07:13:04;13.30;;;5.70;;
11907;SDS011;6014;47.690;9.130;2023-09-30T07:15:32;12.80;;;5.45;;
11907;SDS011;6014;47.690;9.130;2023-09-30T07:18:01;15.68;;;5.55;;
11907;SDS011;6014;47.690;9.130;2023-09-30T07:20:30;12.07;;;5.45;;
11907;SDS011;6014;47.690;9.130;2023-09-30T07:22:59;13.75;;;5.00;;
11907;SDS011;6014;47.690;9.130;2023-09-30T07:25:43;11.70;;;4.80;;
11907;SDS011;6014;47.690;9.130;2023-09-30T07:28:11;12.82;;;5.00;;
11907;SDS011;6014;47.690;9.130;2023-09-30T07:30:40;12.57;;;4.32;;
11907;SDS011;6014;47.690;9.130;2023-09-30T07:33:08;12.77;;;4.78;;
11907;SDS011;6014;47.690;9.130;2023-09-30T07:35:38;15.38;;;5.00;;
11907;SDS011;6014;47.690;9.130;2023-09-30T07:38:06;11.75;;;4.70;;
11907;SDS011;6014;47.690;9.130;2023-09-30T07:40:34;12.13;;;4.55;;
11907;SDS011;6014;47.690;9.130;2023-09-30T07:43:02;14.50;;;5.07;;
11907;SDS011;6014;47.690;9.130;2023-09-30T07:45:31;17.65;;;5.60;;
11907;SDS011;6014;47.690;9.130;2023-09-30T07:47:59;11.63;;;4.80;;
11907;SDS011;6014;47.690;9.130;2023-09-30T07:50:29;11.40;;;4.80;;
11907;SDS011;6014;47.690;9.130;2023-09-30T07:52:59;13.57;;;4.90;;
11907;SDS011;6014;47.690;9.130;2023-09-30T07:55:27;11.40;;;4.53;;
11907;SDS011;6014;47.690;9.130;2023-09-30T07:57:56;13.45;;;5.38;;
11907;SDS011;6014;47.690;9.130;2023-09-30T08:00:25;12.52;;;4.43;;
11907;SDS011;6014;47.690;9.130;2023-09-30T08:02:53;13.27;;;4.93;;
11907;SDS011;6014;47.690;9.130;2023-09-30T08:05:21;12.20;;;4.45;;
11907;SDS011;6014;47.690;9.130;2023-09-30T08:07:49;12.07;;;4.82;;
11907;SDS011;6014;47.690;9.130;2023-09-30T08:10:19;14.60;;;4.57;;
11907;SDS011;6014;47.690;9.130;2023-09-30T08:12:47;12.07;;;5.03;;
11907;SDS011;6014;47.690;9.130;2023-09-30T08:15:16;13.10;;;4.72;;
11907;SDS011;6014;47.690;9.130;2023-09-30T08:17:44;11.18;;;4.10;;
11907;SDS011;6014;47.690;9.130;2023-09-30T08:20:13;13.38;;;5.28;;
11907;SDS011;6014;47.690;9.130;2023-09-30T08:22:41;11.00;;;4.60;;
11907;SDS011;6014;47.690;9.130;2023-09-30T08:25:09;14.50;;;5.80;;
11907;SDS011;6014;47.690;9.130;2023-09-30T08:27:39;12.23;;;5.18;;
11907;SDS011;6014;47.690;9.130;2023-09-30T08:30:08;12.60;;;5.60;;
11907;SDS011;6014;47.690;9.130;2023-09-30T08:32:36;16.13;;;5.40;;
11907;SDS011;6014;47.690;9.130;2023-09-30T08:35:05;16.35;;;6.28;;
11907;SDS011;6014;47.690;9.130;2023-09-30T08:37:35;12.27;;;5.30;;
11907;SDS011;6014;47.690;9.130;2023-09-30T08:40:04;14.65;;;5.68;;
11907;SDS011;6014;47.690;9.130;2023-09-30T08:42:36;14.55;;;6.15;;
11907;SDS011;6014;47.690;9.130;2023-09-30T08:45:08;14.70;;;6.25;;
11907;SDS011;6014;47.690;9.130;2023-09-30T08:47:42;12.60;;;5.43;;
11907;SDS011;6014;47.690;9.130;2023-09-30T08:50:11;12.98;;;5.28;;
11907;SDS011;6014;47.690;9.130;2023-09-30T08:52:41;17.92;;;5.60;;
11907;SDS011;6014;47.690;9.130;2023-09-30T08:55:11;14.52;;;6.00;;
11907;SDS011;6014;47.690;9.130;2023-09-30T08:57:41;14.98;;;6.45;;
11907;SDS011;6014;47.690;9.130;2023-09-30T09:00:10;13.75;;;6.07;;
11907;SDS011;6014;47.690;9.130;2023-09-30T09:02:40;16.45;;;6.22;;
11907;SDS011;6014;47.690;9.130;2023-09-30T09:05:09;14.10;;;5.72;;
11907;SDS011;6014;47.690;9.130;2023-09-30T09:07:38;14.45;;;5.95;;
11907;SDS011;6014;47.690;9.130;2023-09-30T09:12:59;13.98;;;5.82;;
11907;SDS011;6014;47.690;9.130;2023-09-30T09:15:27;17.05;;;6.30;;
11907;SDS011;6014;47.690;9.130;2023-09-30T09:17:56;14.70;;;6.03;;
11907;SDS011;6014;47.690;9.130;2023-09-30T09:20:25;14.88;;;6.03;;
11907;SDS011;6014;47.690;9.130;2023-09-30T09:22:54;13.10;;;5.90;;
11907;SDS011;6014;47.690;9.130;2023-09-30T09:25:24;14.23;;;6.20;;
11907;SDS011;6014;47.690;9.130;2023-09-30T09:27:53;14.88;;;5.88;;
11907;SDS011;6014;47.690;9.130;2023-09-30T09:30:23;14.30;;;6.18;;
11907;SDS011;6014;47.690;9.130;2023-09-30T09:32:53;12.75;;;5.53;;
11907;SDS011;6014;47.690;9.130;2023-09-30T09:35:28;12.77;;;5.72;;
11907;SDS011;6014;47.690;9.130;2023-09-30T09:37:59;14.55;;;6.45;;
11907;SDS011;6014;47.690;9.130;2023-09-30T09:40:28;14.43;;;6.20;;
11907;SDS011;6014;47.690;9.130;2023-09-30T09:42:57;14.43;;;6.60;;
11907;SDS011;6014;47.690;9.130;2023-09-30T09:45:30;14.57;;;6.15;;
11907;SDS011;6014;47.690;9.130;2023-09-30T09:48:00;17.08;;;7.15;;
11907;SDS011;6014;47.690;9.130;2023-09-30T09:50:31;16.33;;;6.38;;
11907;SDS011;6014;47.690;9.130;2023-09-30T09:53:00;16.58;;;6.63;;
11907;SDS011;6014;47.690;9.130;2023-09-30T09:55:28;15.00;;;6.07;;
11907;SDS011;6014;47.690;9.130;2023-09-30T09:57:57;13.98;;;5.57;;
11907;SDS011;6014;47.690;9.130;2023-09-30T10:00:26;15.45;;;6.28;;
11907;SDS011;6014;47.690;9.130;2023-09-30T10:02:57;15.02;;;6.15;;
11907;SDS011;6014;47.690;9.130;2023-09-30T10:05:26;16.73;;;6.30;;
11907;SDS011;6014;47.690;9.130;2023-09-30T10:07:56;14.07;;;5.80;;
11907;SDS011;6014;47.690;9.130;2023-09-30T10:10:29;11.63;;;5.15;;
11907;SDS011;6014;47.690;9.130;2023-09-30T10:12:58;14.50;;;6.03;;
11907;SDS011;6014;47.690;9.130;2023-09-30T10:15:36;13.65;;;5.65;;
11907;SDS011;6014;47.690;9.130;2023-09-30T10:18:09;12.50;;;5.47;;
11907;SDS011;6014;47.690;9.130;2023-09-30T10:20:41;12.73;;;5.78;;
11907;SDS011;6014;47.690;9.130;2023-09-30T10:23:18;13.52;;;5.50;;
11907;SDS011;6014;47.690;9.130;2023-09-30T10:25:51;13.75;;;5.68;;
11907;SDS011;6014;47.690;9.130;2023-09-30T10:28:37;15.80;;;5.65;;
11907;SDS011;6014;47.690;9.130;2023-09-30T10:31:07;16.15;;;5.20;;
11907;SDS011;6014;47.690;9.130;2023-09-30T10:36:40;14.65;;;5.70;;
11907;SDS011;6014;47.690;9.130;2023-09-30T10:39:10;13.30;;;5.68;;
11907;SDS011;6014;47.690;9.130;2023-09-30T10:41:49;14.00;;;5.45;;
11907;SDS011;6014;47.690;9.130;2023-09-30T10:44:33;13.55;;;5.78;;
11907;SDS011;6014;47.690;9.130;2023-09-30T10:50:04;11.77;;;5.15;;
11907;SDS011;6014;47.690;9.130;2023-09-30T10:53:11;13.00;;;5.47;;
11907;SDS011;6014;47.690;9.130;2023-09-30T10:55:40;14.18;;;5.40;;
11907;SDS011;6014;47.690;9.130;2023-09-30T10:58:10;14.32;;;6.55;;
11907;SDS011;6014;47.690;9.130;2023-09-30T11:00:38;14.25;;;6.03;;
11907;SDS011;6014;47.690;9.130;2023-09-30T11:03:10;12.63;;;5.15;;
11907;SDS011;6014;47.690;9.130;2023-09-30T11:05:39;12.60;;;5.80;;
11907;SDS011;6014;47.690;9.130;2023-09-30T11:08:14;13.05;;;5.85;;
11907;SDS011;6014;47.690;9.130;2023-09-30T11:10:47;13.07;;;5.55;;
11907;SDS011;6014;47.690;9.130;2023-09-30T11:13:17;13.13;;;5.72;;
11907;SDS011;6014;47.690;9.130;2023-09-30T11:15:45;13.25;;;5.68;;
11907;SDS011;6014;47.690;9.130;2023-09-30T11:18:14;15.60;;;6.10;;
11907;SDS011;6014;47.690;9.130;2023-09-30T11:20:43;12.98;;;5.47;;
11907;SDS011;6014;47.690;9.130;2023-09-30T11:23:22;15.40;;;5.82;;
11907;SDS011;6014;47.690;9.130;2023-09-30T11:25:50;13.93;;;4.70;;
11907;SDS011;6014;47.690;9.130;2023-09-30T11:28:21;15.52;;;6.40;;
11907;SDS011;6014;47.690;9.130;2023-09-30T11:30:53;15.25;;;5.72;;
11907;SDS011;6014;47.690;9.130;2023-09-30T11:33:22;13.95;;;5.57;;
11907;SDS011;6014;47.690;9.130;2023-09-30T11:35:57;12.77;;;5.68;;
11907;SDS011;6014;47.690;9.130;2023-09-30T11:38:29;15.38;;;5.80;;
11907;SDS011;6014;47.690;9.130;2023-09-30T11:40:58;13.25;;;5.47;;
11907;SDS011;6014;47.690;9.130;2023-09-30T11:43:30;14.15;;;6.20;;
11907;SDS011;6014;47.690;9.130;2023-09-30T11:46:05;14.70;;;6.22;;
11907;SDS011;6014;47.690;9.130;2023-09-30T11:48:35;14.45;;;6.15;;
11907;SDS011;6014;47.690;9.130;2023-09-30T11:51:04;11.27;;;4.93;;
11907;SDS011;6014;47.690;9.130;2023-09-30T11:53:34;13.85;;;5.93;;
11907;SDS011;6014;47.690;9.130;2023-09-30T11:56:03;13.57;;;5.85;;
11907;SDS011;6014;47.690;9.130;2023-09-30T11:58:41;13.02;;;5.07;;
11907;SDS011;6014;47.690;9.130;2023-09-30T12:01:12;12.70;;;5.57;;
11907;SDS011;6014;47.690;9.130;2023-09-30T12:03:40;12.18;;;4.82;;
11907;SDS011;6014;47.690;9.130;2023-09-30T12:06:09;11.68;;;5.15;;
11907;SDS011;6014;47.690;9.130;2023-09-30T12:08:41;13.48;;;5.93;;
11907;SDS011;6014;47.690;9.130;2023-09-30T12:11:09;12.00;;;4.68;;
11907;SDS011;6014;47.690;9.130;2023-09-30T12:13:39;12.20;;;5.60;;
11907;SDS011;6014;47.690;9.130;2023-09-30T12:16:08;12.52;;;4.78;;
11907;SDS011;6014;47.690;9.130;2023-09-30T12:18:36;15.93;;;6.05;;
11907;SDS011;6014;47.690;9.130;2023-09-30T12:21:04;11.48;;;5.53;;
11907;SDS011;6014;47.690;9.130;2023-09-30T12:23:34;11.57;;;4.85;;
11907;SDS011;6014;47.690;9.130;2023-09-30T12:26:04;13.45;;;5.47;;
11907;SDS011;6014;47.690;9.130;2023-09-30T12:28:40;13.88;;;5.80;;
11907;SDS011;6014;47.690;9.130;2023-09-30T12:31:08;13.80;;;5.50;;
11907;SDS011;6014;47.690;9.130;2023-09-30T12:33:38;12.23;;;5.57;;
11907;SDS011;6014;47.690;9.130;2023-09-30T12:36:06;14.05;;;5.57;;
11907;SDS011;6014;47.690;9.130;2023-09-30T12:38:34;13.25;;;5.38;;
11907;SDS011;6014;47.690;9.130;2023-09-30T12:41:04;15.52;;;5.85;;
11907;SDS011;6014;47.690;9.130;2023-09-30T12:43:32;15.48;;;6.43;;
11907;SDS011;6014;47.690;9.130;2023-09-30T12:46:00;14.00;;;5.53;;
11907;SDS011;6014;47.690;9.130;2023-09-30T12:48:29;15.38;;;5.78;;
11907;SDS011;6014;47.690;9.130;2023-09-30T12:50:57;16.55;;;6.28;;
11907;SDS011;6014;47.690;9.130;2023-09-30T12:53:25;11.82;;;5.35;;
11907;SDS011;6014;47.690;9.130;2023-09-30T12:55:53;14.77;;;6.03;;
11907;SDS011;6014;47.690;9.130;2023-09-30T12:58:23;15.75;;;6.22;;
11907;SDS011;6014;47.690;9.130;2023-09-30T13:00:51;12.82;;;6.00;;
11907;SDS011;6014;47.690;9.130;2023-09-30T13:03:33;13.18;;;5.78;;
11907;SDS011;6014;47.690;9.130;2023-09-30T13:06:02;14.35;;;5.57;;
11907;SDS011;6014;47.690;9.130;2023-09-30T13:08:31;12.82;;;5.70;;
11907;SDS011;6014;47.690;9.130;2023-09-30T13:11:00;12.95;;;5.45;;
11907;SDS011;6014;47.690;9.130;2023-09-30T13:13:30;13.13;;;5.63;;
11907;SDS011;6014;47.690;9.130;2023-09-30T13:16:00;14.05;;;5.15;;
11907;SDS011;6014;47.690;9.130;2023-09-30T13:18:28;11.50;;;5.30;;
11907;SDS011;6014;47.690;9.130;2023-09-30T13:20:56;14.55;;;5.55;;
11907;SDS011;6014;47.690;9.130;2023-09-30T13:23:24;13.27;;;5.38;;
11907;SDS011;6014;47.690;9.130;2023-09-30T13:25:53;13.43;;;5.88;;
11907;SDS011;6014;47.690;9.130;2023-09-30T13:28:22;14.18;;;5.60;;
11907;SDS011;6014;47.690;9.130;2023-09-30T13:30:51;13.65;;;5.72;;
11907;SDS011;6014;47.690;9.130;2023-09-30T13:33:19;14.98;;;6.22;;
11907;SDS011;6014;47.690;9.130;2023-09-30T13:35:47;15.70;;;6.25;;
11907;SDS011;6014;47.690;9.130;2023-09-30T13:38:16;14.13;;;5.90;;
11907;SDS011;6014;47.690;9.130;2023-09-30T13:40:44;12.55;;;6.13;;
11907;SDS011;6014;47.690;9.130;2023-09-30T13:43:12;12.38;;;5.53;;
11907;SDS011;6014;47.690;9.130;2023-09-30T13:48:33;12.68;;;5.32;;
11907;SDS011;6014;47.690;9.130;2023-09-30T13:51:06;15.73;;;6.18;;
11907;SDS011;6014;47.690;9.130;2023-09-30T13:53:34;12.68;;;5.88;;
11907;SDS011;6014;47.690;9.130;2023-09-30T13:56:03;13.65;;;5.40;;
11907;SDS011;6014;47.690;9.130;2023-09-30T13:58:31;15.60;;;5.53;;
11907;SDS011;6014;47.690;9.130;2023-09-30T14:00:59;14.23;;;6.13;;
11907;SDS011;6014;47.690;9.130;2023-09-30T14:03:29;13.23;;;5.72;;
11907;SDS011;6014;47.690;9.130;2023-09-30T14:05:58;14.15;;;5.18;;
11907;SDS011;6014;47.690;9.130;2023-09-30T14:08:27;14.18;;;6.10;;
11907;SDS011;6014;47.690;9.130;2023-09-30T14:10:56;11.05;;;5.22;;
11907;SDS011;6014;47.690;9.130;2023-09-30T14:13:42;11.63;;;4.75;;
11907;SDS011;6014;47.690;9.130;2023-09-30T14:16:10;12.40;;;5.32;;
11907;SDS011;6014;47.690;9.130;2023-09-30T14:18:39;13.85;;;6.28;;
11907;SDS011;6014;47.690;9.130;2023-09-30T14:21:09;12.55;;;5.38;;
11907;SDS011;6014;47.690;9.130;2023-09-30T14:23:37;15.00;;;6.18;;
11907;SDS011;6014;47.690;9.130;2023-09-30T14:26:05;14.95;;;6.10;;
11907;SDS011;6014;47.690;9.130;2023-09-30T14:28:37;12.07;;;5.20;;
11907;SDS011;6014;47.690;9.130;2023-09-30T14:31:05;13.75;;;5.57;;
11907;SDS011;6014;47.690;9.130;2023-09-30T14:33:34;13.95;;;5.63;;
11907;SDS011;6014;47.690;9.130;2023-09-30T14:36:04;12.32;;;5.85;;
11907;SDS011;6014;47.690;9.130;2023-09-30T14:38:33;12.52;;;5.43;;
11907;SDS011;6014;47.690;9.130;2023-09-30T14:41:05;13.50;;;5.45;;
11907;SDS011;6014;47.690;9.130;2023-09-30T14:43:35;12.88;;;5.70;;
11907;SDS011;6014;47.690;9.130;2023-09-30T14:46:03;15.02;;;6.80;;
11907;SDS011;6014;47.690;9.130;2023-09-30T14:48:31;13.20;;;5.82;;
11907;SDS011;6014;47.690;9.130;2023-09-30T14:50:59;14.80;;;6.50;;
11907;SDS011;6014;47.690;9.130;2023-09-30T14:53:30;14.32;;;5.80;;
11907;SDS011;6014;47.690;9.130;2023-09-30T14:55:58;18.20;;;5.95;;
11907;SDS011;6014;47.690;9.130;2023-09-30T14:58:27;13.45;;;6.88;;
11907;SDS011;6014;47.690;9.130;2023-09-30T15:00:55;12.88;;;5.63;;
11907;SDS011;6014;47.690;9.130;2023-09-30T15:03:23;17.05;;;6.95;;
11907;SDS011;6014;47.690;9.130;2023-09-30T15:05:57;15.43;;;6.00;;
11907;SDS011;6014;47.690;9.130;2023-09-30T15:08:31;13.85;;;6.30;;
11907;SDS011;6014;47.690;9.130;2023-09-30T15:14:07;13.63;;;5.75;;
11907;SDS011;6014;47.690;9.130;2023-09-30T15:16:36;13.48;;;5.80;;
11907;SDS011;6014;47.690;9.130;2023-09-30T15:19:04;12.15;;;5.93;;